Report METAR

 

LIML - Milano/Linate, Italy
Distance from station: NO 27km
Dati ricevuti: 22/01/2020 08:50
Parz. nuvoloso
Parz. nuvoloso
 Vento da Variabile
Vento: Variabile 4 km/h
Temperatura: 0°C
P.to Rugiada: -2°C
Umidità: 87%
Barometro: 1036 hPa
Nuvole: Parz. nuvoloso
Visibility: 9 km
2020/01/22 07:50 LIML 220750Z VRB02KT 9000 NSC M00/M02 Q1036 NOSIG
LIME - Bergamo/Orio Ser, Italy
Distance from station: NNE 43km
Dati ricevuti: 22/01/2020 08:50
Sereno
Sereno
 Vento da Variabile
Vento: Variabile 4 km/h
Temperatura: -1°C
P.to Rugiada: -4°C
Umidità: 80%
Barometro: 1035 hPa
Summary: Sereno
Visibility: superiore a 10 km
2020/01/22 07:50 LIME 220750Z VRB02KT CAVOK M01/M04 Q1035 NOSIG
 
LIMS - Piacenza, it-Afb, Italy
Distance from station: SSE 45km
Dati ricevuti: 22/01/2020 08:55
Few Clouds
Few Clouds
 Vento da O
Vento: O 7 km/h
Temperatura: 1°C
Temperatura Vento: -2°C
P.to Rugiada: -1°C
Umidità: 87%
Barometro: 1035 hPa
Nuvole: Few Clouds
Visibility: 10 km
Cloud details: Few Clouds 2134 m
2020/01/22 07:55 LIMS 220755Z 26004KT 9999 FEW070 01/M01 Q1035
LIPO - Brescia/Montichi, Italy
Distance from station: ENE 65km
Dati ricevuti: 22/01/2020 07:50
DATI Obsoleti
Sereno
Sereno
 Vento da N
Vento: N 6 km/h
Temperatura: -2°C
P.to Rugiada: -2°C
Umidità: 100%
Barometro: 1035 hPa
Summary: Sereno
Visibility: superiore a 10 km
2020/01/22 06:50 LIPO 220650Z 35003KT CAVOK M02/M02 Q1035